Time;durP1;ratioP1;P1;durP2;ratioP2;P2;SDS_P1;SDS_P2;PMS_P1;PMS_P2;Temp;Humidity;BMP_temperature;BMP_pressure;BME280_temperature;BME280_humidity;BME280_pressure;Samples;Min_cycle;Max_cycle;Signal;HPM_P1;HPM_P2
2022/01/09 00:02:09;;;;;;;3.97;2.42;;;11.10;99.90;;;;;;5113150;27;20071;-62
2022/01/09 00:04:37;;;;;;;5.53;3.03;;;11.20;99.90;;;;;;5121191;27;20042;-62
2022/01/09 00:07:05;;;;;;;4.47;2.17;;;11.20;99.90;;;;;;5116950;27;20048;-62
2022/01/09 00:09:32;;;;;;;4.43;2.00;;;11.10;99.90;;;;;;5125149;27;20505;-62
2022/01/09 00:12:00;;;;;;;3.88;2.30;;;11.20;99.90;;;;;;5117351;27;20439;-62
2022/01/09 00:14:27;;;;;;;4.40;2.00;;;11.20;99.90;;;;;;5109394;27;20035;-62
2022/01/09 00:16:55;;;;;;;8.20;2.10;;;11.10;99.90;;;;;;5109727;27;20040;-62
2022/01/09 00:19:22;;;;;;;3.80;2.05;;;11.20;99.90;;;;;;5122132;27;20118;-62
2022/01/09 00:21:50;;;;;;;9.70;2.92;;;11.20;99.90;;;;;;5125677;27;20500;-62
2022/01/09 00:24:18;;;;;;;5.57;2.67;;;11.10;99.90;;;;;;5122168;27;20036;-62
2022/01/09 00:26:46;;;;;;;5.10;2.20;;;11.20;99.90;;;;;;5125886;27;20055;-62
2022/01/09 00:29:13;;;;;;;5.38;1.67;;;11.20;99.90;;;;;;5124387;27;20409;-62
2022/01/09 00:31:41;;;;;;;4.95;2.72;;;11.20;99.90;;;;;;5102992;27;20027;-62
2022/01/09 00:34:08;;;;;;;5.25;2.50;;;11.20;99.90;;;;;;5103176;27;20046;-62
2022/01/09 00:36:35;;;;;;;5.25;1.98;;;11.20;99.90;;;;;;5103845;27;20143;-62
2022/01/09 00:39:04;;;;;;;4.10;3.15;;;11.20;99.90;;;;;;5126794;27;20092;-62
2022/01/09 00:41:31;;;;;;;3.95;2.28;;;11.20;99.90;;;;;;5122549;27;20397;-62
2022/01/09 00:43:59;;;;;;;6.57;3.13;;;11.20;99.90;;;;;;5113850;27;20065;-62
2022/01/09 00:46:26;;;;;;;6.55;1.63;;;11.20;99.90;;;;;;5113318;27;20043;-62
2022/01/09 00:48:54;;;;;;;4.05;2.63;;;11.10;99.90;;;;;;5100328;28;20051;-62
2022/01/09 00:51:23;;;;;;;3.28;1.98;;;11.20;99.90;;;;;;5123216;27;20048;-62
2022/01/09 00:53:50;;;;;;;5.15;2.03;;;11.10;99.90;;;;;;5116978;27;20081;-62
2022/01/09 00:56:18;;;;;;;4.00;2.17;;;11.10;99.90;;;;;;5110831;27;20053;-62
2022/01/09 00:58:45;;;;;;;10.38;3.33;;;11.10;99.90;;;;;;5110655;27;20036;-62
2022/01/09 01:01:13;;;;;;;6.10;2.70;;;11.10;99.90;;;;;;5114129;27;20135;-61
2022/01/09 01:03:41;;;;;;;3.10;1.75;;;11.10;99.90;;;;;;5126056;27;20568;-61
2022/01/09 01:06:08;;;;;;;5.35;2.08;;;11.10;99.90;;;;;;5125048;27;20088;-62
2022/01/09 01:08:35;;;;;;;3.63;1.90;;;11.10;99.90;;;;;;5120140;27;20043;-62
2022/01/09 01:11:03;;;;;;;5.63;2.45;;;11.10;99.90;;;;;;5120214;27;20139;-62
2022/01/09 01:13:31;;;;;;;2.38;1.52;;;11.10;99.90;;;;;;5122408;27;20058;-62
2022/01/09 01:15:59;;;;;;;4.82;2.10;;;11.20;99.90;;;;;;5121349;27;20114;-62
2022/01/09 01:18:26;;;;;;;2.97;1.58;;;11.10;99.90;;;;;;5119873;27;20043;-62
2022/01/09 01:20:54;;;;;;;5.20;2.50;;;11.10;99.90;;;;;;5124759;27;20509;-62
2022/01/09 01:23:22;;;;;;;4.53;2.13;;;11.10;99.90;;;;;;5122134;27;20075;-62
2022/01/09 01:25:51;;;;;;;3.53;2.30;;;11.20;99.90;;;;;;5120952;27;20113;-61
2022/01/09 01:28:19;;;;;;;3.53;2.15;;;11.20;99.90;;;;;;5117264;27;20057;-62
2022/01/09 01:30:47;;;;;;;6.10;2.28;;;11.20;99.90;;;;;;5120716;27;20054;-62
2022/01/09 01:33:14;;;;;;;5.32;1.90;;;11.20;99.90;;;;;;5125470;27;20043;-62
2022/01/09 01:35:42;;;;;;;5.65;2.92;;;11.20;99.90;;;;;;5062358;28;20055;-62
2022/01/09 01:38:09;;;;;;;6.22;2.90;;;11.10;99.90;;;;;;5114096;28;20031;-62
2022/01/09 01:40:37;;;;;;;4.97;2.08;;;11.10;99.90;;;;;;5096137;28;20118;-62
2022/01/09 01:43:04;;;;;;;4.10;2.70;;;11.00;99.90;;;;;;5096275;28;20125;-62
2022/01/09 01:45:32;;;;;;;4.90;2.65;;;11.00;99.90;;;;;;5114148;28;20043;-62
2022/01/09 01:48:05;;;;;;;7.68;2.47;;;11.00;99.90;;;;;;5114030;28;20394;-62
2022/01/09 01:50:37;;;;;;;6.55;3.35;;;10.90;99.90;;;;;;5095873;28;20878;-62
2022/01/09 01:53:09;;;;;;;6.50;2.72;;;10.90;99.90;;;;;;5113330;28;20128;-62
2022/01/09 01:55:38;;;;;;;5.38;2.55;;;10.90;99.90;;;;;;5095970;28;20122;-62
2022/01/09 01:58:07;;;;;;;8.52;2.67;;;10.80;99.90;;;;;;5113797;28;20603;-62
2022/01/09 02:00:35;;;;;;;6.45;2.80;;;10.80;99.90;;;;;;5113559;28;20177;-62
2022/01/09 02:03:03;;;;;;;4.57;2.47;;;10.80;99.90;;;;;;5113754;28;20068;-62
2022/01/09 02:05:30;;;;;;;6.28;2.53;;;10.80;99.90;;;;;;5113637;28;20122;-62
2022/01/09 02:08:00;;;;;;;9.00;3.85;;;10.80;99.90;;;;;;5113753;28;20078;-62
2022/01/09 02:10:27;;;;;;;5.65;2.88;;;10.80;99.90;;;;;;5095608;28;20054;-62
2022/01/09 02:12:57;;;;;;;5.00;3.42;;;10.80;99.90;;;;;;5095655;28;20071;-62
2022/01/09 02:15:32;;;;;;;6.07;3.08;;;10.80;99.90;;;;;;5113527;28;20044;-62
2022/01/09 02:18:03;;;;;;;7.45;2.97;;;10.70;99.90;;;;;;5114162;28;20131;-62
2022/01/09 02:20:31;;;;;;;8.30;2.83;;;10.70;99.90;;;;;;5113692;28;20490;-62
2022/01/09 02:22:59;;;;;;;6.28;3.38;;;10.70;99.90;;;;;;5113504;28;20108;-62
2022/01/09 02:25:27;;;;;;;4.88;2.85;;;10.70;99.90;;;;;;5095729;28;20392;-62
2022/01/09 02:27:56;;;;;;;4.47;2.70;;;10.60;99.90;;;;;;5113411;28;20048;-62
2022/01/09 02:30:23;;;;;;;8.65;3.38;;;10.60;99.90;;;;;;5113546;28;20126;-62
2022/01/09 02:32:51;;;;;;;4.97;2.45;;;10.50;99.90;;;;;;5113638;28;20051;-62
2022/01/09 02:35:23;;;;;;;5.85;2.40;;;10.50;99.90;;;;;;5113516;28;20064;-62
2022/01/09 02:37:50;;;;;;;4.68;2.85;;;10.50;99.90;;;;;;5078972;28;20108;-62
2022/01/09 02:40:18;;;;;;;5.85;2.70;;;10.50;99.90;;;;;;5113611;28;20047;-62
2022/01/09 02:42:47;;;;;;;8.27;2.58;;;10.50;99.90;;;;;;5095586;28;20050;-62
2022/01/09 02:45:18;;;;;;;4.13;2.50;;;10.50;99.90;;;;;;5113517;28;20051;-62
2022/01/09 02:47:45;;;;;;;6.38;2.78;;;10.50;99.90;;;;;;5095548;28;20035;-62
2022/01/09 02:52:59;;;;;;;;;;;10.40;99.90;;;;;;5095923;28;20047;-62
2022/01/09 02:55:29;;;;;;;5.72;2.10;;;10.50;99.90;;;;;;5095631;28;20010;-62
2022/01/09 02:57:58;;;;;;;5.53;2.75;;;10.40;99.90;;;;;;5113222;28;20047;-62
2022/01/09 03:00:28;;;;;;;4.35;2.47;;;10.40;99.90;;;;;;5113362;28;20135;-62
2022/01/09 03:02:57;;;;;;;4.80;2.35;;;10.40;99.90;;;;;;5113421;28;20036;-62
2022/01/09 03:05:26;;;;;;;4.63;2.15;;;10.40;99.90;;;;;;5098141;28;20035;-62
2022/01/09 03:07:53;;;;;;;4.90;2.63;;;10.50;99.90;;;;;;5099110;28;20128;-62
2022/01/09 03:10:22;;;;;;;5.40;2.20;;;10.40;99.90;;;;;;5098956;28;20530;-62
2022/01/09 03:12:51;;;;;;;6.10;2.35;;;10.40;99.90;;;;;;5117142;28;20054;-62
2022/01/09 03:15:19;;;;;;;5.38;2.05;;;10.40;99.90;;;;;;5117036;28;20044;-62
2022/01/09 03:17:47;;;;;;;9.95;3.58;;;10.30;99.90;;;;;;5116781;28;20047;-62
2022/01/09 03:20:20;;;;;;;6.60;3.08;;;10.30;99.90;;;;;;5116617;28;20161;-62
2022/01/09 03:22:48;;;;;;;5.95;3.45;;;10.30;99.90;;;;;;5116864;28;20394;-62
2022/01/09 03:25:16;;;;;;;5.10;2.60;;;10.30;99.90;;;;;;5082042;28;20043;-62
2022/01/09 03:27:46;;;;;;;3.97;2.10;;;10.30;99.90;;;;;;5098656;28;20397;-62
2022/01/09 03:30:13;;;;;;;4.07;2.50;;;10.30;99.90;;;;;;5098428;28;20126;-62
2022/01/09 03:32:42;;;;;;;4.97;2.38;;;10.30;99.90;;;;;;5098252;28;20405;-62
2022/01/09 03:35:13;;;;;;;4.88;2.63;;;10.30;99.90;;;;;;5116453;28;20057;-62
2022/01/09 03:37:43;;;;;;;5.05;2.47;;;10.30;99.90;;;;;;5116631;28;20036;-62
2022/01/09 03:40:14;;;;;;;6.70;2.35;;;10.30;99.90;;;;;;5116546;28;20564;-62
2022/01/09 03:42:41;;;;;;;6.35;2.55;;;10.30;99.90;;;;;;5116154;28;20128;-62
2022/01/09 03:45:09;;;;;;;3.78;1.98;;;10.30;99.90;;;;;;5116167;28;20440;-62
2022/01/09 03:47:37;;;;;;;6.53;2.40;;;10.30;99.90;;;;;;5116181;28;20046;-61
2022/01/09 03:50:07;;;;;;;4.00;2.63;;;10.20;99.90;;;;;;5116078;28;20044;-60
2022/01/09 03:52:37;;;;;;;9.85;3.60;;;10.20;99.90;;;;;;5116180;28;20465;-61
2022/01/09 03:55:12;;;;;;;5.90;2.83;;;10.30;99.90;;;;;;5116307;28;20044;-61
2022/01/09 03:57:40;;;;;;;4.85;2.50;;;10.20;99.90;;;;;;5097920;28;20085;-61
2022/01/09 04:00:11;;;;;;;5.00;2.60;;;10.20;99.90;;;;;;5115886;28;20036;-61
2022/01/09 04:02:41;;;;;;;3.50;1.95;;;10.30;99.90;;;;;;5116142;28;20119;-62
2022/01/09 04:05:09;;;;;;;4.68;2.40;;;10.30;99.90;;;;;;5115935;28;20493;-62
2022/01/09 04:07:37;;;;;;;4.78;2.25;;;10.20;99.90;;;;;;5115850;28;20071;-62
2022/01/09 04:10:05;;;;;;;3.88;2.13;;;10.20;99.90;;;;;;5116112;28;20206;-62
2022/01/09 04:12:36;;;;;;;7.22;2.58;;;10.20;99.90;;;;;;5115799;28;20096;-62
2022/01/09 04:15:06;;;;;;;7.75;2.40;;;10.20;99.90;;;;;;5115678;28;20386;-62
2022/01/09 04:20:10;;;;;;;4.40;2.50;;;10.20;99.90;;;;;;5115624;28;20059;-62
2022/01/09 04:22:38;;;;;;;5.57;2.85;;;10.10;99.90;;;;;;5115470;28;20063;-62
2022/01/09 04:25:06;;;;;;;5.63;2.30;;;10.10;99.90;;;;;;5115415;28;20470;-62
2022/01/09 04:27:35;;;;;;;8.95;2.90;;;10.10;99.90;;;;;;5115613;28;20075;-62
2022/01/09 04:30:04;;;;;;;4.88;2.08;;;10.10;99.90;;;;;;5115739;28;20040;-62
2022/01/09 04:32:32;;;;;;;5.93;2.50;;;10.10;99.90;;;;;;5115575;28;20051;-62
2022/01/09 04:34:59;;;;;;;9.02;2.85;;;10.10;99.90;;;;;;5115200;28;20052;-62
2022/01/09 04:37:28;;;;;;;3.63;2.42;;;10.10;99.90;;;;;;5115205;28;20541;-62
2022/01/09 04:39:56;;;;;;;7.15;3.25;;;10.10;99.90;;;;;;5115064;28;20046;-62
2022/01/09 04:42:31;;;;;;;4.15;2.22;;;10.10;99.90;;;;;;5097109;28;20130;-62
2022/01/09 04:44:58;;;;;;;4.93;2.00;;;10.10;99.90;;;;;;5115157;28;20046;-62
2022/01/09 04:47:26;;;;;;;4.90;1.77;;;10.10;99.90;;;;;;5097036;28;20130;-62
2022/01/09 04:49:54;;;;;;;4.20;2.45;;;10.00;99.90;;;;;;5115137;28;20502;-62
2022/01/09 04:52:26;;;;;;;4.13;2.13;;;10.00;99.90;;;;;;5114720;28;20044;-62
2022/01/09 04:54:54;;;;;;;5.28;2.30;;;10.00;99.90;;;;;;5096815;28;20131;-62
2022/01/09 04:57:21;;;;;;;7.47;2.70;;;10.00;99.90;;;;;;5114650;28;20043;-62
2022/01/09 04:59:49;;;;;;;4.78;2.33;;;10.00;99.90;;;;;;5115063;28;20122;-62
2022/01/09 05:02:17;;;;;;;12.93;2.88;;;10.00;99.90;;;;;;5114820;28;20104;-62
2022/01/09 05:04:44;;;;;;;5.47;2.05;;;10.10;99.90;;;;;;5096643;28;20050;-62
2022/01/09 05:07:11;;;;;;;3.45;2.17;;;10.00;99.90;;;;;;5114525;28;20046;-62
2022/01/09 05:09:39;;;;;;;4.70;2.40;;;10.10;99.90;;;;;;5114726;28;20392;-62
2022/01/09 05:12:09;;;;;;;7.35;2.88;;;10.10;99.90;;;;;;5096711;28;20043;-62
2022/01/09 05:14:36;;;;;;;5.03;2.33;;;10.00;99.90;;;;;;5114737;28;20047;-62
2022/01/09 05:17:06;;;;;;;4.05;2.00;;;10.10;99.90;;;;;;5114744;28;20039;-62
2022/01/09 05:19:35;;;;;;;8.15;2.13;;;10.10;99.90;;;;;;5114527;28;20090;-62
2022/01/09 05:22:05;;;;;;;5.70;2.20;;;10.10;99.90;;;;;;5096259;28;20385;-62
2022/01/09 05:24:33;;;;;;;5.25;3.03;;;10.10;99.90;;;;;;5096338;28;20069;-62
2022/01/09 05:27:00;;;;;;;3.55;2.63;;;10.10;99.90;;;;;;5096116;28;20474;-62
2022/01/09 05:29:28;;;;;;;5.63;1.98;;;10.10;99.90;;;;;;5114235;28;20121;-62
2022/01/09 05:31:55;;;;;;;5.53;2.55;;;10.10;99.90;;;;;;5114248;28;20436;-62
2022/01/09 05:34:22;;;;;;;2.92;1.98;;;10.10;99.90;;;;;;5113939;28;20537;-62
2022/01/09 05:36:50;;;;;;;6.95;2.22;;;10.00;99.90;;;;;;5096133;28;20454;-62
2022/01/09 05:39:18;;;;;;;3.95;1.90;;;10.00;99.90;;;;;;5114018;28;20098;-62
2022/01/09 05:41:46;;;;;;;5.45;1.88;;;10.00;99.90;;;;;;5096037;28;20138;-62
2022/01/09 05:44:14;;;;;;;5.18;2.20;;;10.00;99.90;;;;;;5114106;28;20055;-62
2022/01/09 05:46:41;;;;;;;4.38;2.45;;;10.00;99.90;;;;;;5095941;28;20122;-62
2022/01/09 05:49:09;;;;;;;4.38;2.30;;;10.00;99.90;;;;;;5095930;28;20493;-62
2022/01/09 05:51:36;;;;;;;4.82;2.30;;;10.00;99.90;;;;;;5094576;28;20051;-62
2022/01/09 05:54:04;;;;;;;6.13;2.30;;;10.00;99.90;;;;;;5114127;28;20516;-62
2022/01/09 05:56:31;;;;;;;3.67;2.00;;;10.00;99.90;;;;;;5095972;28;20552;-62
2022/01/09 05:58:59;;;;;;;3.20;2.10;;;10.00;99.90;;;;;;5114024;28;20044;-62
2022/01/09 06:01:27;;;;;;;3.40;2.20;;;10.00;99.90;;;;;;5113835;28;20132;-62
2022/01/09 06:03:54;;;;;;;4.05;1.98;;;10.00;99.90;;;;;;5096082;28;20113;-62
2022/01/09 06:06:22;;;;;;;3.90;2.17;;;10.00;99.90;;;;;;5113710;28;20143;-62
2022/01/09 06:08:49;;;;;;;6.13;1.80;;;10.00;99.90;;;;;;5096101;28;20100;-62
2022/01/09 06:11:16;;;;;;;6.68;2.72;;;10.00;99.90;;;;;;5113955;28;20494;-62
2022/01/09 06:13:44;;;;;;;4.32;2.70;;;10.00;99.90;;;;;;5095657;28;20048;-62
2022/01/09 06:16:12;;;;;;;4.45;2.00;;;10.00;99.90;;;;;;5113845;28;20138;-62
2022/01/09 06:18:39;;;;;;;5.07;2.20;;;10.00;99.90;;;;;;5078992;28;20116;-62
2022/01/09 06:21:07;;;;;;;4.07;1.95;;;10.00;99.90;;;;;;5113573;28;20085;-62
2022/01/09 06:23:34;;;;;;;9.57;2.47;;;10.00;99.90;;;;;;5095740;28;20046;-62
2022/01/09 06:26:02;;;;;;;2.60;1.63;;;9.90;99.90;;;;;;5113646;28;20086;-61
2022/01/09 06:28:29;;;;;;;6.28;2.78;;;9.90;99.90;;;;;;5113526;28;20036;-61
2022/01/09 06:30:57;;;;;;;5.22;2.60;;;9.90;99.90;;;;;;5113490;28;20394;-62
2022/01/09 06:33:24;;;;;;;4.18;2.08;;;9.80;99.90;;;;;;5113631;28;20507;-62
2022/01/09 06:35:52;;;;;;;4.25;2.42;;;9.80;99.90;;;;;;5095593;28;20097;-62
2022/01/09 06:38:19;;;;;;;4.70;2.88;;;9.80;99.90;;;;;;5095350;28;20047;-62
2022/01/09 06:40:47;;;;;;;6.57;2.92;;;9.80;99.90;;;;;;5117256;28;20127;-62
2022/01/09 06:43:15;;;;;;;3.10;1.90;;;9.80;99.90;;;;;;5099255;28;20086;-62
2022/01/09 06:45:42;;;;;;;6.40;2.67;;;9.80;99.90;;;;;;5117442;28;20059;-62
2022/01/09 06:48:10;;;;;;;2.95;1.77;;;9.80;99.90;;;;;;5099371;28;20050;-62
2022/01/09 06:50:38;;;;;;;4.05;2.60;;;9.70;99.90;;;;;;5117251;28;20051;-62
2022/01/09 06:53:05;;;;;;;3.05;2.30;;;9.70;99.90;;;;;;5099342;28;20118;-62
2022/01/09 06:55:33;;;;;;;4.22;2.22;;;9.70;99.90;;;;;;5117237;28;20063;-62
2022/01/09 06:58:00;;;;;;;4.05;2.30;;;9.70;99.90;;;;;;5117247;28;20126;-62
2022/01/09 07:00:28;;;;;;;5.45;2.20;;;9.70;99.90;;;;;;5098738;28;20391;-62
2022/01/09 07:02:55;;;;;;;4.47;2.45;;;9.70;99.90;;;;;;5117189;28;20104;-62
2022/01/09 07:05:23;;;;;;;4.68;2.45;;;9.70;99.90;;;;;;5116879;28;20040;-62
2022/01/09 07:07:50;;;;;;;4.28;2.58;;;9.70;99.90;;;;;;5099225;28;20138;-62
2022/01/09 07:10:18;;;;;;;4.80;2.67;;;9.70;99.90;;;;;;5098809;28;20540;-62
2022/01/09 07:12:45;;;;;;;4.88;2.92;;;9.70;99.90;;;;;;5098971;28;20184;-62
2022/01/09 07:15:13;;;;;;;5.20;3.20;;;10.00;99.90;;;;;;5116744;28;20435;-62
2022/01/09 07:17:40;;;;;;;3.90;2.00;;;11.10;99.90;;;;;;5117122;28;20043;-62
2022/01/09 07:20:09;;;;;;;5.57;2.47;;;12.80;99.90;;;;;;5098766;28;20547;-61
2022/01/09 07:22:36;;;;;;;3.65;1.90;;;14.50;99.80;;;;;;5116718;28;20047;-61
2022/01/09 07:25:05;;;;;;;4.55;2.10;;;16.30;97.00;;;;;;5116789;28;20046;-62
2022/01/09 07:27:34;;;;;;;3.60;2.00;;;17.80;94.20;;;;;;5116669;28;20131;-62
2022/01/09 07:30:02;;;;;;;4.53;1.90;;;19.10;91.50;;;;;;5098725;28;20055;-62
2022/01/09 07:32:30;;;;;;;5.65;2.22;;;20.00;89.40;;;;;;5116708;28;20048;-62
2022/01/09 07:34:57;;;;;;;4.90;1.88;;;20.80;86.10;;;;;;5116802;28;20097;-62
2022/01/09 07:37:30;;;;;;;3.53;1.92;;;21.30;83.00;;;;;;5098373;28;20043;-62
2022/01/09 07:39:59;;;;;;;5.50;2.42;;;21.60;81.30;;;;;;5116703;28;20163;-62
2022/01/09 07:42:27;;;;;;;3.88;2.67;;;22.00;79.80;;;;;;5116309;28;20054;-62
2022/01/09 07:44:54;;;;;;;2.60;2.00;;;22.20;78.60;;;;;;5116608;28;20120;-62
2022/01/09 07:47:22;;;;;;;3.53;1.80;;;22.20;77.60;;;;;;5116090;28;20031;-62
2022/01/09 07:49:49;;;;;;;4.82;2.38;;;22.10;77.20;;;;;;5115876;28;20036;-62
2022/01/09 07:52:17;;;;;;;5.40;2.40;;;22.00;77.20;;;;;;5114908;28;20066;-62
2022/01/09 07:54:44;;;;;;;4.35;1.92;;;21.70;77.40;;;;;;5116216;28;20115;-62
2022/01/09 07:57:12;;;;;;;3.70;2.00;;;21.30;78.10;;;;;;5098464;28;20123;-62
2022/01/09 07:59:39;;;;;;;3.38;2.00;;;20.90;78.80;;;;;;5097780;28;20040;-62
2022/01/09 08:02:07;;;;;;;4.05;2.15;;;20.50;79.20;;;;;;5116016;28;20367;-62
2022/01/09 08:04:35;;;;;;;4.22;2.28;;;20.20;79.70;;;;;;5116084;28;20401;-62
2022/01/09 08:07:03;;;;;;;3.13;1.90;;;20.00;80.20;;;;;;5116145;28;20039;-62
2022/01/09 08:09:31;;;;;;;4.95;2.90;;;19.80;80.40;;;;;;5115860;28;20043;-62
2022/01/09 08:11:58;;;;;;;4.35;2.58;;;19.60;80.90;;;;;;5115684;28;20044;-62
2022/01/09 08:14:26;;;;;;;6.05;2.20;;;19.50;81.00;;;;;;5097758;28;20059;-62
2022/01/09 08:16:53;;;;;;;5.40;2.00;;;19.40;81.00;;;;;;5116033;28;20047;-62
2022/01/09 08:19:21;;;;;;;4.35;2.08;;;19.30;81.90;;;;;;5115738;28;20109;-62
2022/01/09 08:21:48;;;;;;;5.05;2.97;;;19.20;81.90;;;;;;5097726;28;20413;-62
2022/01/09 08:24:16;;;;;;;4.07;2.30;;;19.00;81.90;;;;;;5115411;28;20142;-62
2022/01/09 08:26:44;;;;;;;4.85;2.47;;;19.00;82.30;;;;;;5097620;28;20161;-62
2022/01/09 08:29:11;;;;;;;3.88;2.38;;;18.90;81.90;;;;;;5115902;28;20100;-62
2022/01/09 08:31:39;;;;;;;6.75;2.80;;;18.80;82.70;;;;;;5115691;28;20428;-62
2022/01/09 08:34:06;;;;;;;5.35;3.92;;;18.70;82.90;;;;;;5115355;28;20039;-62
2022/01/09 08:36:34;;;;;;;3.28;2.25;;;18.50;84.20;;;;;;5097524;28;20089;-62
2022/01/09 08:39:05;;;;;;;6.63;2.70;;;18.30;84.50;;;;;;5115339;28;20046;-62
2022/01/09 08:41:34;;;;;;;6.43;2.85;;;18.00;85.40;;;;;;5115094;28;20051;-62
2022/01/09 08:44:04;;;;;;;4.28;2.40;;;17.70;85.90;;;;;;5115172;28;20457;-62
2022/01/09 08:46:33;;;;;;;4.60;2.70;;;17.40;87.00;;;;;;5115246;28;20088;-62
2022/01/09 08:49:02;;;;;;;5.97;1.98;;;17.20;87.20;;;;;;5115014;28;20089;-62
2022/01/09 08:51:31;;;;;;;4.70;2.58;;;17.00;87.50;;;;;;5114993;28;20054;-62
2022/01/09 08:53:59;;;;;;;4.68;2.30;;;16.90;88.20;;;;;;5115016;28;20580;-62
2022/01/09 08:56:28;;;;;;;5.72;2.65;;;16.80;88.20;;;;;;5115244;28;20071;-62
2022/01/09 08:58:57;;;;;;;6.07;2.75;;;16.60;88.40;;;;;;5096918;28;20036;-62
2022/01/09 09:01:41;;;;;;;7.03;2.13;;;16.50;89.20;;;;;;5114709;28;20051;-62
2022/01/09 09:04:09;;;;;;;3.95;2.50;;;16.40;90.00;;;;;;5114595;28;20101;-61
2022/01/09 09:06:37;;;;;;;6.05;2.78;;;16.40;90.00;;;;;;5114768;28;20040;-61
2022/01/09 09:09:06;;;;;;;6.68;2.60;;;16.30;90.30;;;;;;5114686;28;20485;-62
2022/01/09 09:11:34;;;;;;;3.95;2.40;;;16.20;90.20;;;;;;5115009;28;20480;-62
2022/01/09 09:14:03;;;;;;;5.43;3.45;;;16.20;90.60;;;;;;5114848;28;20039;-62
2022/01/09 09:16:31;;;;;;;4.95;3.10;;;16.10;90.90;;;;;;5114350;28;20036;-62
2022/01/09 09:18:59;;;;;;;5.45;2.50;;;16.10;90.80;;;;;;5114379;28;20073;-62
2022/01/09 09:21:27;;;;;;;7.60;3.00;;;16.20;90.70;;;;;;5114561;28;20044;-62
2022/01/09 09:23:54;;;;;;;3.55;2.65;;;16.20;90.50;;;;;;5114465;28;20130;-62
2022/01/09 09:26:22;;;;;;;4.55;2.40;;;16.20;90.50;;;;;;5114261;28;20086;-62
2022/01/09 09:28:50;;;;;;;4.78;2.38;;;16.20;90.70;;;;;;5114297;28;20494;-62
2022/01/09 09:31:17;;;;;;;6.50;2.78;;;16.20;90.50;;;;;;5114234;28;20600;-62
2022/01/09 09:33:45;;;;;;;6.90;3.03;;;16.20;90.40;;;;;;5114649;28;20100;-62
2022/01/09 09:36:13;;;;;;;5.88;3.22;;;16.20;90.80;;;;;;5114322;28;20126;-62
2022/01/09 09:38:41;;;;;;;3.65;2.30;;;16.20;90.70;;;;;;5096291;28;20035;-62
2022/01/09 09:41:09;;;;;;;6.07;2.33;;;16.20;90.80;;;;;;5079331;28;20048;-62
2022/01/09 09:43:37;;;;;;;4.75;2.80;;;16.20;90.80;;;;;;5113733;28;20576;-62
2022/01/09 09:46:04;;;;;;;4.20;2.92;;;16.30;90.90;;;;;;5095677;28;20047;-62
2022/01/09 09:48:32;;;;;;;4.82;3.22;;;16.30;90.80;;;;;;5113674;28;20074;-62
2022/01/09 09:51:00;;;;;;;9.23;3.10;;;16.30;90.70;;;;;;5094943;28;20043;-62
2022/01/09 09:53:28;;;;;;;4.30;2.95;;;16.30;90.70;;;;;;5114070;28;20047;-62
2022/01/09 09:55:56;;;;;;;4.85;3.40;;;16.40;90.80;;;;;;5084484;28;20055;-62
2022/01/09 09:58:23;;;;;;;4.25;2.55;;;16.40;90.90;;;;;;5087527;28;20040;-62
2022/01/09 10:00:55;;;;;;;6.47;3.95;;;16.30;90.90;;;;;;5095735;28;20504;-62
2022/01/09 10:03:33;;;;;;;4.80;2.92;;;16.30;91.00;;;;;;5095785;28;20036;-62
2022/01/09 10:06:01;;;;;;;5.38;3.42;;;16.30;91.20;;;;;;5096458;28;20075;-62
2022/01/09 10:08:37;;;;;;;7.97;4.90;;;16.40;91.30;;;;;;5076227;28;20444;-62
2022/01/09 10:11:18;;;;;;;5.80;4.30;;;16.40;91.00;;;;;;5073520;28;20070;-62
2022/01/09 10:13:45;;;;;;;4.88;2.95;;;16.50;90.80;;;;;;5070447;28;20345;-62
2022/01/09 10:16:15;;;;;;;9.25;4.35;;;16.40;90.70;;;;;;5052517;28;20051;-62
2022/01/09 10:18:48;;;;;;;11.73;6.25;;;16.50;91.00;;;;;;5083968;28;20051;-62
2022/01/09 10:21:19;;;;;;;10.52;7.93;;;16.50;90.90;;;;;;5085295;28;20036;-62
2022/01/09 10:24:16;;;;;;;14.25;7.70;;;16.60;90.90;;;;;;5085838;28;20138;-62
2022/01/09 10:26:50;;;;;;;12.50;7.15;;;16.60;90.70;;;;;;5073108;28;20122;-62
2022/01/09 10:29:19;;;;;;;11.20;6.75;;;16.60;90.50;;;;;;5098821;28;20046;-62
2022/01/09 10:31:51;;;;;;;6.25;4.25;;;16.70;90.30;;;;;;5095523;28;20119;-63
2022/01/09 10:34:19;;;;;;;5.40;3.88;;;16.70;90.30;;;;;;5096596;28;20068;-62
2022/01/09 10:36:51;;;;;;;8.10;3.15;;;16.70;90.00;;;;;;5100310;28;20101;-61
2022/01/09 10:39:27;;;;;;;5.53;3.47;;;16.70;89.60;;;;;;5094982;28;20040;-62
2022/01/09 10:41:57;;;;;;;11.40;3.53;;;16.70;88.30;;;;;;5075180;28;20471;-62
2022/01/09 10:44:30;;;;;;;7.05;3.80;;;16.60;87.60;;;;;;5092809;28;20036;-61
2022/01/09 10:47:03;;;;;;;4.82;2.80;;;16.60;87.70;;;;;;5093171;28;20464;-61
2022/01/09 10:49:44;;;;;;;4.22;3.15;;;16.70;88.00;;;;;;5093143;28;20067;-61
2022/01/09 10:52:14;;;;;;;5.38;3.10;;;16.60;87.80;;;;;;5106416;28;20406;-62
2022/01/09 10:54:46;;;;;;;6.38;2.92;;;16.60;87.50;;;;;;5113423;28;20051;-62
2022/01/09 10:57:15;;;;;;;3.63;2.35;;;16.60;88.00;;;;;;5113295;28;20055;-62
2022/01/09 10:59:43;;;;;;;7.07;2.53;;;16.60;86.60;;;;;;5095625;28;20039;-62
2022/01/09 11:02:12;;;;;;;4.25;2.45;;;16.60;85.90;;;;;;5113334;28;20549;-62
2022/01/09 11:04:44;;;;;;;3.28;2.70;;;16.50;86.60;;;;;;5095137;28;20081;-62
2022/01/09 11:07:13;;;;;;;5.28;2.10;;;16.50;85.70;;;;;;5113143;28;20427;-62
2022/01/09 11:09:45;;;;;;;6.05;3.47;;;16.50;84.10;;;;;;5094833;28;20477;-62
2022/01/09 11:12:19;;;;;;;4.25;2.40;;;16.50;83.40;;;;;;5095190;28;20096;-62
2022/01/09 11:14:49;;;;;;;4.53;3.40;;;16.40;82.40;;;;;;5113108;28;20486;-62
2022/01/09 11:17:17;;;;;;;8.07;4.20;;;16.40;84.10;;;;;;5094954;28;20036;-62
2022/01/09 11:19:45;;;;;;;5.15;3.60;;;16.40;85.10;;;;;;5113014;28;20440;-62
2022/01/09 11:22:13;;;;;;;6.63;3.22;;;16.30;84.10;;;;;;5112999;28;20032;-62
2022/01/09 11:25:12;;;;;;;5.13;2.95;;;16.30;84.50;;;;;;5113048;28;20068;-62
2022/01/09 11:28:12;;;;;;;6.15;3.47;;;16.20;84.10;;;;;;5116995;28;20039;-62
2022/01/09 11:30:51;;;;;;;3.45;2.10;;;16.20;83.40;;;;;;5116720;28;20049;-62
2022/01/09 11:33:27;;;;;;;3.15;2.17;;;16.20;82.60;;;;;;5098871;28;20130;-62
2022/01/09 11:36:10;;;;;;;3.05;2.38;;;16.10;84.80;;;;;;5116918;28;20039;-62
2022/01/09 11:38:56;;;;;;;2.85;1.88;;;16.00;86.70;;;;;;5116501;28;20070;-62
2022/01/09 11:41:27;;;;;;;3.70;1.60;;;15.90;86.40;;;;;;5116365;28;20048;-62
2022/01/09 11:44:00;;;;;;;3.65;1.80;;;15.70;86.40;;;;;;5081138;28;20043;-62
2022/01/09 11:46:30;;;;;;;5.13;2.20;;;15.60;86.70;;;;;;5116359;28;20112;-62
2022/01/09 11:49:06;;;;;;;10.82;2.97;;;15.50;88.80;;;;;;5098365;28;20048;-63
2022/01/09 11:51:36;;;;;;;3.25;2.20;;;15.30;88.60;;;;;;5116334;28;20168;-61
2022/01/09 11:54:16;;;;;;;4.10;2.10;;;15.20;88.80;;;;;;5116060;28;20378;-62
2022/01/09 11:56:44;;;;;;;5.68;3.80;;;15.10;87.40;;;;;;5116274;28;20047;-62
2022/01/09 11:59:32;;;;;;;4.97;3.42;;;15.00;85.30;;;;;;5098166;28;20040;-62
2022/01/09 12:02:27;;;;;;;3.70;2.80;;;14.90;86.20;;;;;;5116016;28;20085;-63
2022/01/09 12:04:55;;;;;;;4.68;2.88;;;14.70;85.90;;;;;;5104762;28;20048;-62
2022/01/09 12:07:34;;;;;;;4.25;2.83;;;14.60;86.60;;;;;;5097859;28;20040;-62
2022/01/09 12:10:17;;;;;;;4.22;3.05;;;14.40;90.90;;;;;;5115843;28;20044;-62
2022/01/09 12:12:45;;;;;;;5.57;3.30;;;14.40;91.60;;;;;;5115649;28;20040;-63
2022/01/09 12:15:14;;;;;;;8.57;4.50;;;14.40;91.50;;;;;;5097678;28;20116;-63
2022/01/09 12:17:45;;;;;;;5.43;3.80;;;14.40;90.40;;;;;;5115884;28;20039;-63
2022/01/09 12:20:13;;;;;;;5.75;3.50;;;14.50;93.90;;;;;;5115703;28;20043;-63
2022/01/09 12:22:45;;;;;;;4.30;3.17;;;14.50;93.50;;;;;;5115663;28;20039;-63
2022/01/09 12:25:25;;;;;;;9.00;2.55;;;14.50;91.10;;;;;;5115353;28;20036;-63
2022/01/09 12:27:57;;;;;;;3.60;2.40;;;14.50;92.10;;;;;;5115774;28;20050;-63
2022/01/09 12:30:33;;;;;;;5.55;3.10;;;14.60;89.80;;;;;;5115610;28;20385;-63
2022/01/09 12:33:11;;;;;;;7.25;3.80;;;14.60;88.10;;;;;;5115429;28;20428;-63
2022/01/09 12:35:45;;;;;;;6.22;3.75;;;14.60;87.50;;;;;;5097135;28;20082;-63
2022/01/09 12:38:18;;;;;;;5.88;3.30;;;14.50;87.20;;;;;;5096382;28;20044;-63
2022/01/09 12:40:47;;;;;;;3.95;2.70;;;14.40;87.00;;;;;;5115448;28;20066;-63
2022/01/09 12:43:22;;;;;;;4.60;3.13;;;14.40;88.10;;;;;;5115213;28;20398;-63
2022/01/09 12:45:51;;;;;;;4.93;3.00;;;14.30;87.10;;;;;;5115107;28;20118;-63
2022/01/09 12:48:21;;;;;;;6.90;3.70;;;14.30;88.10;;;;;;5114928;28;20036;-63
2022/01/09 12:50:49;;;;;;;5.75;4.32;;;14.20;87.70;;;;;;5096886;28;20051;-63
2022/01/09 12:53:29;;;;;;;5.82;3.58;;;14.10;88.00;;;;;;5097320;28;20394;-63
2022/01/09 12:56:04;;;;;;;7.97;3.95;;;14.10;88.10;;;;;;5097186;28;20093;-63
2022/01/09 12:58:39;;;;;;;7.13;4.32;;;14.00;89.30;;;;;;5115060;28;20047;-63
2022/01/09 13:01:28;;;;;;;8.90;5.80;;;14.00;89.10;;;;;;5114855;28;20040;-63
2022/01/09 13:03:59;;;;;;;8.65;4.82;;;13.90;88.90;;;;;;5096843;28;20104;-63
2022/01/09 13:06:26;;;;;;;5.82;3.63;;;13.80;89.40;;;;;;5114914;28;20051;-63